createdAt,value
2022-08-05T00:02:07.424Z,79.73
2022-08-05T00:04:37.778Z,79.08
2022-08-05T00:07:27.039Z,80.39
2022-08-05T00:09:53.508Z,80.62
2022-08-05T00:12:21.450Z,80.77
2022-08-05T00:14:48.633Z,81.39
2022-08-05T00:17:28.550Z,81.59
2022-08-05T00:20:02.418Z,82.40
2022-08-05T00:22:29.539Z,81.37
2022-08-05T00:24:57.580Z,82.87
2022-08-05T00:27:35.801Z,83.20
2022-08-05T00:30:04.319Z,86.92
2022-08-05T00:32:30.818Z,86.88
2022-08-05T00:35:06.603Z,87.37
2022-08-05T00:37:51.159Z,88.83
2022-08-05T00:40:27.316Z,89.72
2022-08-05T00:42:56.793Z,89.97
2022-08-05T00:45:28.107Z,93.34
2022-08-05T00:48:07.353Z,97.91
2022-08-05T00:50:34.195Z,96.44
2022-08-05T00:53:00.935Z,98.40
2022-08-05T00:55:42.265Z,97.58
2022-08-05T00:58:11.561Z,97.21
2022-08-05T01:00:39.151Z,96.99
2022-08-05T01:03:07.651Z,97.59
2022-08-05T01:05:35.350Z,99.35
2022-08-05T01:08:40.069Z,100.00
2022-08-05T01:10:59.609Z,100.00
2022-08-05T01:13:59.187Z,100.00
2022-08-05T01:16:37.343Z,99.62
2022-08-05T01:19:56.213Z,100.00
2022-08-05T01:22:24.410Z,100.00
2022-08-05T01:25:15.602Z,98.35
2022-08-05T01:28:11.309Z,96.82
2022-08-05T01:30:50.610Z,98.46
2022-08-05T01:33:26.242Z,96.05
2022-08-05T01:35:55.635Z,96.45
2022-08-05T01:38:29.413Z,92.03
2022-08-05T01:41:01.403Z,90.84
2022-08-05T01:43:29.656Z,90.52
2022-08-05T01:45:57.857Z,91.00
2022-08-05T01:48:27.243Z,91.57
2022-08-05T01:50:56.315Z,92.32
2022-08-05T01:53:54.869Z,92.28
2022-08-05T01:56:13.958Z,91.54
2022-08-05T01:59:03.955Z,91.46
2022-08-05T02:01:39.726Z,90.46
2022-08-05T02:04:09.123Z,92.04
2022-08-05T02:06:38.969Z,91.05
2022-08-05T02:09:07.392Z,90.52
2022-08-05T02:11:47.758Z,90.18
2022-08-05T02:14:26.852Z,90.03
2022-08-05T02:16:55.841Z,89.79
2022-08-05T02:19:34.417Z,89.08
2022-08-05T02:22:09.069Z,89.24
2022-08-05T02:24:51.372Z,90.29
2022-08-05T02:27:21.572Z,89.97
2022-08-05T02:30:00.944Z,89.10
2022-08-05T02:32:31.428Z,88.58
2022-08-05T02:35:13.811Z,88.46
2022-08-05T02:37:47.828Z,89.40
2022-08-05T02:40:21.479Z,88.98
2022-08-05T02:42:53.062Z,90.49
2022-08-05T02:45:23.929Z,91.41
2022-08-05T02:48:07.033Z,92.10
2022-08-05T02:50:45.937Z,92.45
2022-08-05T02:53:16.046Z,91.44
2022-08-05T02:55:53.803Z,90.54
2022-08-05T02:58:26.497Z,91.17
2022-08-05T03:00:56.563Z,91.03
2022-08-05T03:03:23.865Z,91.93
2022-08-05T03:06:56.940Z,90.85
2022-08-05T03:08:42.378Z,91.00
2022-08-05T03:11:54.998Z,91.62
2022-08-05T03:14:13.516Z,92.46
2022-08-05T03:16:40.673Z,93.11
2022-08-05T03:19:17.058Z,94.73
2022-08-05T03:21:54.514Z,95.07
2022-08-05T03:24:29.447Z,95.10
2022-08-05T03:26:57.421Z,96.14
2022-08-05T03:29:24.545Z,99.66
2022-08-05T03:32:12.215Z,98.35
2022-08-05T03:34:42.230Z,97.53
2022-08-05T03:37:18.558Z,97.01
2022-08-05T03:40:01.101Z,95.64
2022-08-05T03:42:29.301Z,95.85
2022-08-05T03:44:59.009Z,97.43
2022-08-05T03:47:30.653Z,97.71
2022-08-05T03:50:02.127Z,96.72
2022-08-05T03:52:49.385Z,98.69
2022-08-05T03:56:04.251Z,98.35
2022-08-05T03:58:28.944Z,99.35
2022-08-05T04:00:59.922Z,100.00
2022-08-05T04:03:29.423Z,100.00
2022-08-05T04:05:58.090Z,100.00
2022-08-05T04:08:34.858Z,100.00
2022-08-05T04:11:05.163Z,100.00
2022-08-05T04:13:50.036Z,100.00
2022-08-05T04:16:25.521Z,100.00
2022-08-05T04:19:00.065Z,100.00
2022-08-05T04:22:05.735Z,100.00
2022-08-05T04:24:19.703Z,100.00
2022-08-05T04:26:49.462Z,100.00
2022-08-05T04:29:16.515Z,100.00
2022-08-05T04:31:43.096Z,100.00
2022-08-05T04:34:33.031Z,100.00
2022-08-05T04:36:56.463Z,100.00
2022-08-05T04:39:23.348Z,100.00
2022-08-05T04:41:50.930Z,100.00
2022-08-05T04:44:21.297Z,100.00
2022-08-05T04:46:56.642Z,100.00
2022-08-05T04:49:24.493Z,100.00
2022-08-05T04:52:05.053Z,100.00
2022-08-05T04:54:34.123Z,100.00
2022-08-05T04:57:00.603Z,100.00
2022-08-05T04:59:39.131Z,100.00
2022-08-05T05:02:37.403Z,100.00
2022-08-05T05:05:02.753Z,100.00
2022-08-05T05:07:32.103Z,100.00
2022-08-05T05:09:59.662Z,100.00
2022-08-05T05:12:29.153Z,100.00
2022-08-05T05:14:55.659Z,100.00
2022-08-05T05:17:24.582Z,100.00
2022-08-05T05:19:55.176Z,100.00
2022-08-05T05:22:26.322Z,100.00
2022-08-05T05:24:59.982Z,100.00
2022-08-05T05:27:44.395Z,100.00
2022-08-05T05:30:15.508Z,100.00
2022-08-05T05:32:55.875Z,100.00
2022-08-05T05:35:23.158Z,100.00
2022-08-05T05:37:59.857Z,100.00
2022-08-05T05:40:29.505Z,100.00
2022-08-05T05:42:56.899Z,100.00
2022-08-05T05:45:24.731Z,100.00
2022-08-05T05:48:06.052Z,100.00
2022-08-05T05:50:41.279Z,100.00
2022-08-05T05:53:21.436Z,100.00
2022-08-05T05:55:52.141Z,100.00
2022-08-05T05:58:30.268Z,100.00
2022-08-05T06:01:12.297Z,100.00
2022-08-05T06:04:01.101Z,100.00
2022-08-05T06:06:27.948Z,100.00
2022-08-05T06:08:58.213Z,100.00
2022-08-05T06:11:24.739Z,100.00
2022-08-05T06:13:53.965Z,100.00
2022-08-05T06:16:29.348Z,100.00
2022-08-05T06:19:01.273Z,100.00
2022-08-05T06:21:37.141Z,100.00
2022-08-05T06:24:11.472Z,100.00
2022-08-05T06:26:51.059Z,100.00
2022-08-05T06:29:45.370Z,100.00
2022-08-05T06:32:21.441Z,100.00
2022-08-05T06:34:56.155Z,100.00
2022-08-05T06:37:56.462Z,100.00
2022-08-05T06:40:17.883Z,100.00
2022-08-05T06:42:48.096Z,100.00
2022-08-05T06:45:21.277Z,100.00
2022-08-05T06:48:35.995Z,100.00
2022-08-05T06:50:52.481Z,100.00
2022-08-05T06:53:22.541Z,100.00
2022-08-05T06:55:54.707Z,100.00
2022-08-05T06:58:29.629Z,100.00
2022-08-05T07:01:02.730Z,100.00
2022-08-05T07:03:32.704Z,100.00
2022-08-05T07:06:05.894Z,100.00
2022-08-05T07:08:42.967Z,100.00
2022-08-05T07:11:15.244Z,100.00
2022-08-05T07:14:01.262Z,100.00
2022-08-05T07:18:00.691Z,100.00
2022-08-05T07:22:27.891Z,100.00
2022-08-05T07:25:21.909Z,100.00
2022-08-05T07:27:58.605Z,100.00
2022-08-05T07:30:33.741Z,100.00
2022-08-05T07:33:10.010Z,100.00
2022-08-05T07:36:02.812Z,100.00
2022-08-05T07:38:32.322Z,100.00
2022-08-05T07:42:09.648Z,100.00
2022-08-05T07:43:58.334Z,100.00
2022-08-05T07:46:27.104Z,100.00
2022-08-05T07:49:04.076Z,100.00
2022-08-05T07:51:40.768Z,100.00
2022-08-05T07:54:15.557Z,100.00
2022-08-05T07:57:01.694Z,100.00
2022-08-05T07:59:38.742Z,100.00
2022-08-05T08:02:16.686Z,100.00
2022-08-05T08:04:50.543Z,100.00
2022-08-05T08:07:22.407Z,100.00
2022-08-05T08:09:54.997Z,100.00
2022-08-05T08:12:33.507Z,100.00
2022-08-05T08:15:15.047Z,100.00
2022-08-05T08:17:49.637Z,100.00
2022-08-05T08:21:00.453Z,100.00
2022-08-05T08:23:59.935Z,100.00
2022-08-05T08:26:00.503Z,100.00
2022-08-05T08:28:37.138Z,100.00
2022-08-05T08:31:09.546Z,100.00
2022-08-05T08:33:41.370Z,100.00
2022-08-05T08:36:38.405Z,100.00
2022-08-05T08:38:55.713Z,100.00
2022-08-05T08:41:26.212Z,100.00
2022-08-05T08:45:17.714Z,100.00
2022-08-05T08:47:21.671Z,100.00
2022-08-05T08:50:05.720Z,100.00
2022-08-05T08:52:41.170Z,100.00
2022-08-05T08:55:14.209Z,100.00
2022-08-05T08:57:58.328Z,100.00
2022-08-05T09:00:26.213Z,100.00
2022-08-05T09:02:54.357Z,100.00
2022-08-05T09:05:38.395Z,100.00
2022-08-05T09:08:09.832Z,100.00
2022-08-05T09:10:36.835Z,100.00
2022-08-05T09:13:07.144Z,100.00
2022-08-05T09:15:36.998Z,100.00
2022-08-05T09:18:06.343Z,100.00
2022-08-05T09:20:37.307Z,100.00
2022-08-05T09:23:19.042Z,100.00
2022-08-05T09:26:06.837Z,100.00
2022-08-05T09:28:37.927Z,100.00
2022-08-05T09:31:22.806Z,100.00
2022-08-05T09:34:10.392Z,100.00
2022-08-05T09:36:56.268Z,100.00
2022-08-05T09:39:41.990Z,100.00
2022-08-05T09:42:23.473Z,100.00
2022-08-05T09:44:56.580Z,100.00
2022-08-05T09:47:34.914Z,100.00
2022-08-05T09:50:08.361Z,100.00
2022-08-05T09:52:36.192Z,100.00
2022-08-05T09:55:58.678Z,100.00
2022-08-05T09:57:59.844Z,100.00
2022-08-05T10:00:27.593Z,100.00
2022-08-05T10:02:58.641Z,100.00
2022-08-05T10:05:28.561Z,100.00
2022-08-05T10:08:11.210Z,100.00
2022-08-05T10:10:50.181Z,100.00
2022-08-05T10:13:47.751Z,100.00
2022-08-05T10:16:41.787Z,100.00
2022-08-05T10:19:23.779Z,100.00
2022-08-05T10:22:09.079Z,100.00
2022-08-05T10:24:42.283Z,100.00
2022-08-05T10:27:14.333Z,100.00
2022-08-05T10:30:06.593Z,100.00
2022-08-05T10:32:52.338Z,100.00
2022-08-05T10:35:18.721Z,100.00
2022-08-05T10:37:47.526Z,100.00
2022-08-05T10:40:39.006Z,100.00
2022-08-05T10:43:36.324Z,100.00
2022-08-05T10:46:06.964Z,100.00
2022-08-05T10:48:58.164Z,100.00
2022-08-05T10:51:57.795Z,100.00
2022-08-05T10:55:02.293Z,100.00
2022-08-05T10:57:29.375Z,100.00
2022-08-05T11:00:14.778Z,100.00
2022-08-05T11:03:24.291Z,99.77
2022-08-05T11:06:05.159Z,100.00
2022-08-05T11:08:37.182Z,100.00
2022-08-05T11:11:44.356Z,100.00
2022-08-05T11:14:49.471Z,100.00
2022-08-05T11:17:59.859Z,100.00
2022-08-05T11:20:43.894Z,100.00
2022-08-05T11:23:33.223Z,100.00
2022-08-05T11:26:29.133Z,99.68
2022-08-05T11:29:12.634Z,97.68
2022-08-05T11:31:57.608Z,96.82
2022-08-05T11:34:50.882Z,95.15
2022-08-05T11:38:29.585Z,94.45
2022-08-05T11:41:00.356Z,94.71
2022-08-05T11:44:00.875Z,93.99
2022-08-05T11:46:32.553Z,97.97
2022-08-05T11:49:00.774Z,96.69
2022-08-05T11:51:43.715Z,94.36
2022-08-05T11:54:37.979Z,94.01
2022-08-05T11:57:07.942Z,95.75
2022-08-05T11:59:51.546Z,97.20
2022-08-05T12:02:30.524Z,96.21
2022-08-05T12:05:07.939Z,95.61
2022-08-05T12:08:08.264Z,97.28
2022-08-05T12:10:43.710Z,91.72
2022-08-05T12:13:28.141Z,93.30
2022-08-05T12:16:14.704Z,91.28
2022-08-05T12:18:48.683Z,92.31
2022-08-05T12:21:49.946Z,92.16
2022-08-05T12:24:19.345Z,89.97
2022-08-05T12:26:50.222Z,89.19
2022-08-05T12:29:22.898Z,90.35
2022-08-05T12:31:53.596Z,91.82
2022-08-05T12:34:28.392Z,91.05
2022-08-05T12:36:57.114Z,87.90
2022-08-05T12:39:34.348Z,83.11
2022-08-05T12:42:09.037Z,85.29
2022-08-05T12:44:35.957Z,82.83
2022-08-05T12:47:02.910Z,82.02
2022-08-05T12:50:03.836Z,80.79
2022-08-05T12:52:41.734Z,86.27
2022-08-05T12:55:22.813Z,76.93
2022-08-05T12:58:50.807Z,81.03
2022-08-05T13:02:01.802Z,80.39
2022-08-05T13:03:39.002Z,80.22
2022-08-05T13:06:12.388Z,72.00
2022-08-05T13:08:40.142Z,70.59
2022-08-05T13:11:07.819Z,69.68
2022-08-05T13:14:05.133Z,71.57
2022-08-05T13:16:25.550Z,68.93
2022-08-05T13:18:58.360Z,71.66
2022-08-05T13:21:27.816Z,71.86
2022-08-05T13:23:55.352Z,75.09
2022-08-05T13:26:27.201Z,72.51
2022-08-05T13:28:57.351Z,74.71
2022-08-05T13:31:34.082Z,73.95
2022-08-05T13:34:22.766Z,71.39
2022-08-05T13:36:52.634Z,70.10
2022-08-05T13:40:13.775Z,72.70
2022-08-05T13:42:06.735Z,66.49
2022-08-05T13:44:34.645Z,66.03
2022-08-05T13:47:08.321Z,65.99
2022-08-05T13:49:35.946Z,75.53
2022-08-05T13:52:19.888Z,70.16
2022-08-05T13:54:56.599Z,73.60
2022-08-05T13:57:26.175Z,72.12
2022-08-05T14:00:12.808Z,70.58
2022-08-05T14:02:39.621Z,70.67
2022-08-05T14:05:15.447Z,69.28
2022-08-05T14:07:59.634Z,70.44
2022-08-05T14:10:32.344Z,66.90
2022-08-05T14:12:59.505Z,67.43
2022-08-05T14:16:04.602Z,68.71
2022-08-05T14:18:17.668Z,66.95
2022-08-05T14:20:54.612Z,66.22
2022-08-05T14:23:25.782Z,66.45
2022-08-05T14:25:58.718Z,64.74
2022-08-05T14:28:30.658Z,63.14
2022-08-05T14:30:58.677Z,64.50
2022-08-05T14:33:25.539Z,63.97
2022-08-05T14:35:54.487Z,67.34
2022-08-05T14:38:31.639Z,64.73
2022-08-05T14:41:00.440Z,61.81
2022-08-05T14:43:59.480Z,65.16
2022-08-05T14:46:13.749Z,62.94
2022-08-05T14:48:40.550Z,65.50
2022-08-05T14:51:09.101Z,65.54
2022-08-05T14:53:44.633Z,67.08
2022-08-05T14:56:12.052Z,65.68
2022-08-05T14:58:47.607Z,67.00
2022-08-05T15:01:16.002Z,62.71
2022-08-05T15:03:44.210Z,63.93
2022-08-05T15:06:15.083Z,63.28
2022-08-05T15:08:59.705Z,59.16
2022-08-05T15:11:52.296Z,58.97
2022-08-05T15:14:33.584Z,62.75
2022-08-05T15:17:10.038Z,58.64
2022-08-05T15:19:57.412Z,57.66
2022-08-05T15:22:27.017Z,60.95
2022-08-05T15:24:55.124Z,57.19
2022-08-05T15:27:21.724Z,59.81
2022-08-05T15:29:52.543Z,58.42
2022-08-05T15:32:20.849Z,59.55
2022-08-05T15:34:54.236Z,57.35
2022-08-05T15:38:32.989Z,58.92
2022-08-05T15:40:59.157Z,58.30
2022-08-05T15:43:01.644Z,57.59
2022-08-05T15:45:38.892Z,55.76
2022-08-05T15:48:05.790Z,53.13
2022-08-05T15:50:33.485Z,49.64
2022-08-05T15:53:04.151Z,48.37
2022-08-05T15:56:02.687Z,46.41
2022-08-05T15:58:23.158Z,45.67
2022-08-05T16:01:11.881Z,45.32
2022-08-05T16:03:52.373Z,46.75
2022-08-05T16:06:26.310Z,47.09
2022-08-05T16:08:55.571Z,43.69
2022-08-05T16:11:39.988Z,41.68
2022-08-05T16:14:08.973Z,41.90
2022-08-05T16:16:37.756Z,46.26
2022-08-05T16:19:09.766Z,42.75
2022-08-05T16:21:58.267Z,43.04
2022-08-05T16:24:41.165Z,44.12
2022-08-05T16:27:16.084Z,41.46
2022-08-05T16:29:50.003Z,42.36
2022-08-05T16:32:29.254Z,43.10
2022-08-05T16:34:58.888Z,42.37
2022-08-05T16:38:02.549Z,42.32
2022-08-05T16:40:26.622Z,42.76
2022-08-05T16:42:56.052Z,43.06
2022-08-05T16:46:06.669Z,43.42
2022-08-05T16:48:10.794Z,43.88
2022-08-05T16:50:52.227Z,45.13
2022-08-05T16:53:22.509Z,44.86
2022-08-05T16:55:49.847Z,45.16
2022-08-05T16:58:19.961Z,46.24
2022-08-05T17:00:48.156Z,45.12
2022-08-05T17:03:20.616Z,45.70
2022-08-05T17:05:53.618Z,46.14
2022-08-05T17:08:33.636Z,46.94
2022-08-05T17:11:03.823Z,46.05
2022-08-05T17:13:37.855Z,44.88
2022-08-05T17:16:29.689Z,45.64
2022-08-05T17:18:55.303Z,44.98
2022-08-05T17:21:23.741Z,46.83
2022-08-05T17:24:04.779Z,45.23
2022-08-05T17:26:36.062Z,46.14
2022-08-05T17:29:07.483Z,44.90
2022-08-05T17:31:56.848Z,45.71
2022-08-05T17:34:30.175Z,44.65
2022-08-05T17:36:59.924Z,44.16
2022-08-05T17:39:29.796Z,43.67
2022-08-05T17:42:19.921Z,44.21
2022-08-05T17:44:50.056Z,44.51
2022-08-05T17:47:22.601Z,44.13
2022-08-05T17:49:59.801Z,44.38
2022-08-05T17:52:30.570Z,45.69
2022-08-05T17:54:57.941Z,46.06
2022-08-05T17:57:24.645Z,43.86
2022-08-05T18:00:04.918Z,45.03
2022-08-05T18:02:34.364Z,43.99
2022-08-05T18:05:03.704Z,44.25
2022-08-05T18:07:41.657Z,43.71
2022-08-05T18:10:11.287Z,44.83
2022-08-05T18:12:39.518Z,45.27
2022-08-05T18:15:22.918Z,45.99
2022-08-05T18:17:58.890Z,44.69
2022-08-05T18:20:32.678Z,44.43
2022-08-05T18:23:11.270Z,44.79
2022-08-05T18:25:45.262Z,44.51
2022-08-05T18:28:22.187Z,45.78
2022-08-05T18:30:56.137Z,46.37
2022-08-05T18:33:24.082Z,46.08
2022-08-05T18:36:03.409Z,45.81
2022-08-05T18:38:30.817Z,47.24
2022-08-05T18:41:54.250Z,46.60
2022-08-05T18:43:53.267Z,46.77
2022-08-05T18:46:21.831Z,47.27
2022-08-05T18:48:53.587Z,48.33
2022-08-05T18:52:05.203Z,49.33
2022-08-05T18:54:31.643Z,49.57
2022-08-05T18:57:01.983Z,49.47
2022-08-05T18:59:44.357Z,49.41
2022-08-05T19:02:27.997Z,49.69
2022-08-05T19:05:02.982Z,48.92
2022-08-05T19:07:46.110Z,49.57
2022-08-05T19:10:12.977Z,48.71
2022-08-05T19:12:40.804Z,49.45
2022-08-05T19:15:25.233Z,49.86
2022-08-05T19:18:09.645Z,50.21
2022-08-05T19:20:41.409Z,50.37
2022-08-05T19:24:06.210Z,49.80
2022-08-05T19:26:02.214Z,51.08
2022-08-05T19:28:30.831Z,50.53
2022-08-05T19:30:58.411Z,50.19
2022-08-05T19:33:35.283Z,51.94
2022-08-05T19:36:06.979Z,52.33
2022-08-05T19:38:37.302Z,53.47
2022-08-05T19:41:09.024Z,53.30
2022-08-05T19:44:05.296Z,52.96
2022-08-05T19:46:29.048Z,54.38
2022-08-05T19:48:56.402Z,54.74
2022-08-05T19:51:59.802Z,55.22
2022-08-05T19:54:21.720Z,57.07
2022-08-05T19:56:58.037Z,56.28
2022-08-05T19:59:54.586Z,55.26
2022-08-05T20:02:12.750Z,55.23
2022-08-05T20:04:42.971Z,55.29
2022-08-05T20:07:13.693Z,55.01
2022-08-05T20:09:55.092Z,54.99
2022-08-05T20:12:25.131Z,55.58
2022-08-05T20:14:52.978Z,56.03
2022-08-05T20:17:23.497Z,55.47
2022-08-05T20:19:51.048Z,56.03
2022-08-05T20:22:24.000Z,56.31
2022-08-05T20:24:53.758Z,56.50
2022-08-05T20:27:21.005Z,57.56
2022-08-05T20:29:58.088Z,58.08
2022-08-05T20:32:27.071Z,57.80
2022-08-05T20:34:54.196Z,58.53
2022-08-05T20:38:04.950Z,58.65
2022-08-05T20:40:08.366Z,58.15
2022-08-05T20:42:35.392Z,58.23
2022-08-05T20:45:02.561Z,58.17
2022-08-05T20:47:32.272Z,57.72
2022-08-05T20:49:59.411Z,58.42
2022-08-05T20:52:26.533Z,58.77
2022-08-05T20:55:15.976Z,58.43
2022-08-05T20:57:43.488Z,59.20
2022-08-05T21:00:20.858Z,58.84
2022-08-05T21:03:06.243Z,59.13
2022-08-05T21:05:47.436Z,60.83
2022-08-05T21:08:20.888Z,60.99
2022-08-05T21:10:53.642Z,62.34
2022-08-05T21:13:26.124Z,63.43
2022-08-05T21:16:06.989Z,62.36
2022-08-05T21:18:34.332Z,62.91
2022-08-05T21:21:02.386Z,64.32
2022-08-05T21:23:28.849Z,64.94
2022-08-05T21:26:04.215Z,65.11
2022-08-05T21:28:50.569Z,64.56
2022-08-05T21:31:18.096Z,63.76
2022-08-05T21:33:47.614Z,66.14
2022-08-05T21:36:27.744Z,66.55
2022-08-05T21:38:56.928Z,66.48
2022-08-05T21:41:25.933Z,66.04
2022-08-05T21:44:03.870Z,65.88
2022-08-05T21:46:34.671Z,66.29
2022-08-05T21:49:02.284Z,66.35
2022-08-05T21:52:22.825Z,67.46
2022-08-05T21:54:17.929Z,68.44
2022-08-05T21:57:15.418Z,68.73
2022-08-05T22:00:02.104Z,69.35
2022-08-05T22:02:30.035Z,69.99
2022-08-05T22:04:58.602Z,70.58
2022-08-05T22:07:40.080Z,70.88
2022-08-05T22:10:13.663Z,70.50
2022-08-05T22:12:45.063Z,69.65
2022-08-05T22:16:00.852Z,69.02
2022-08-05T22:18:04.921Z,67.90
2022-08-05T22:20:31.846Z,68.50
2022-08-05T22:23:21.520Z,69.15
2022-08-05T22:26:09.273Z,69.31
2022-08-05T22:28:38.197Z,68.15
2022-08-05T22:31:06.275Z,68.09
2022-08-05T22:33:55.384Z,68.64
2022-08-05T22:36:19.658Z,68.05
2022-08-05T22:38:51.379Z,68.23
2022-08-05T22:42:04.223Z,69.34
2022-08-05T22:44:07.925Z,68.64
2022-08-05T22:46:40.104Z,69.72
2022-08-05T22:49:12.388Z,70.18
2022-08-05T22:52:05.558Z,70.63
2022-08-05T22:54:34.973Z,70.17
2022-08-05T22:57:01.688Z,70.41
2022-08-05T22:59:48.520Z,69.63
2022-08-05T23:02:17.652Z,69.30
2022-08-05T23:04:51.567Z,69.60
2022-08-05T23:07:21.952Z,69.05
2022-08-05T23:09:57.728Z,69.37
2022-08-05T23:12:32.710Z,69.44
2022-08-05T23:15:03.431Z,69.03
2022-08-05T23:17:35.106Z,69.02
2022-08-05T23:20:17.412Z,70.92
2022-08-05T23:22:48.247Z,70.99
2022-08-05T23:25:17.049Z,72.42
2022-08-05T23:28:03.543Z,73.58
2022-08-05T23:30:40.500Z,73.76
2022-08-05T23:33:19.069Z,73.60
2022-08-05T23:35:52.111Z,75.07
2022-08-05T23:38:22.378Z,75.75
2022-08-05T23:40:49.365Z,76.52
2022-08-05T23:43:25.423Z,77.00
2022-08-05T23:46:03.447Z,76.87
2022-08-05T23:48:29.979Z,77.23
2022-08-05T23:50:56.546Z,77.20
2022-08-05T23:53:46.156Z,77.46
2022-08-05T23:56:11.758Z,77.90
2022-08-05T23:58:38.655Z,78.00
